sensor_id;sensor_type;location;lat;lon;timestamp;P1;durP1;ratioP1;P2;durP2;ratioP2
22435;SDS011;11385;50.822;4.324;2022-12-11T00:01:14;23.77;;;13.72;;
22435;SDS011;11385;50.822;4.324;2022-12-11T00:03:43;24.30;;;13.50;;
22435;SDS011;11385;50.822;4.324;2022-12-11T00:06:13;26.12;;;14.00;;
22435;SDS011;11385;50.822;4.324;2022-12-11T00:08:41;22.73;;;13.83;;
22435;SDS011;11385;50.822;4.324;2022-12-11T00:11:08;22.85;;;12.85;;
22435;SDS011;11385;50.822;4.324;2022-12-11T00:13:37;22.58;;;13.78;;
22435;SDS011;11385;50.822;4.324;2022-12-11T00:16:04;23.62;;;13.45;;
22435;SDS011;11385;50.822;4.324;2022-12-11T00:18:31;22.10;;;12.98;;
22435;SDS011;11385;50.822;4.324;2022-12-11T00:20:59;25.30;;;13.60;;
22435;SDS011;11385;50.822;4.324;2022-12-11T00:23:27;24.20;;;14.38;;
22435;SDS011;11385;50.822;4.324;2022-12-11T00:25:54;25.32;;;14.30;;
22435;SDS011;11385;50.822;4.324;2022-12-11T00:28:20;27.73;;;14.90;;
22435;SDS011;11385;50.822;4.324;2022-12-11T00:30:48;26.55;;;15.60;;
22435;SDS011;11385;50.822;4.324;2022-12-11T00:33:14;26.87;;;15.72;;
22435;SDS011;11385;50.822;4.324;2022-12-11T00:35:43;26.60;;;14.25;;
22435;SDS011;11385;50.822;4.324;2022-12-11T00:38:17;26.52;;;15.30;;
22435;SDS011;11385;50.822;4.324;2022-12-11T00:40:46;24.72;;;14.38;;
22435;SDS011;11385;50.822;4.324;2022-12-11T00:43:13;26.12;;;14.83;;
22435;SDS011;11385;50.822;4.324;2022-12-11T00:45:43;27.42;;;15.00;;
22435;SDS011;11385;50.822;4.324;2022-12-11T00:48:12;24.50;;;13.58;;
22435;SDS011;11385;50.822;4.324;2022-12-11T00:50:39;25.20;;;15.20;;
22435;SDS011;11385;50.822;4.324;2022-12-11T00:53:06;24.65;;;14.60;;
22435;SDS011;11385;50.822;4.324;2022-12-11T00:55:35;29.50;;;15.38;;
22435;SDS011;11385;50.822;4.324;2022-12-11T00:58:04;28.02;;;15.30;;
22435;SDS011;11385;50.822;4.324;2022-12-11T01:00:31;25.55;;;15.35;;
22435;SDS011;11385;50.822;4.324;2022-12-11T01:02:58;26.15;;;15.30;;
22435;SDS011;11385;50.822;4.324;2022-12-11T01:05:25;26.75;;;16.32;;
22435;SDS011;11385;50.822;4.324;2022-12-11T01:07:51;30.23;;;16.42;;
22435;SDS011;11385;50.822;4.324;2022-12-11T01:10:18;28.27;;;16.10;;
22435;SDS011;11385;50.822;4.324;2022-12-11T01:12:50;28.15;;;14.33;;
22435;SDS011;11385;50.822;4.324;2022-12-11T01:15:19;29.57;;;15.28;;
22435;SDS011;11385;50.822;4.324;2022-12-11T01:17:47;27.10;;;14.23;;
22435;SDS011;11385;50.822;4.324;2022-12-11T01:20:15;27.00;;;15.70;;
22435;SDS011;11385;50.822;4.324;2022-12-11T01:22:43;26.00;;;13.85;;
22435;SDS011;11385;50.822;4.324;2022-12-11T01:25:09;25.82;;;15.10;;
22435;SDS011;11385;50.822;4.324;2022-12-11T01:27:36;24.25;;;14.10;;
22435;SDS011;11385;50.822;4.324;2022-12-11T01:30:04;25.30;;;14.18;;
22435;SDS011;11385;50.822;4.324;2022-12-11T01:32:33;26.75;;;14.45;;
22435;SDS011;11385;50.822;4.324;2022-12-11T01:35:01;26.75;;;15.53;;
22435;SDS011;11385;50.822;4.324;2022-12-11T01:37:29;25.82;;;14.98;;
22435;SDS011;11385;50.822;4.324;2022-12-11T01:39:56;26.00;;;14.95;;
22435;SDS011;11385;50.822;4.324;2022-12-11T01:42:22;28.38;;;15.43;;
22435;SDS011;11385;50.822;4.324;2022-12-11T01:47:29;28.60;;;16.60;;
22435;SDS011;11385;50.822;4.324;2022-12-11T01:49:55;26.27;;;15.48;;
22435;SDS011;11385;50.822;4.324;2022-12-11T01:52:22;29.55;;;16.02;;
22435;SDS011;11385;50.822;4.324;2022-12-11T01:54:49;27.22;;;15.98;;
22435;SDS011;11385;50.822;4.324;2022-12-11T01:57:16;28.25;;;15.10;;
22435;SDS011;11385;50.822;4.324;2022-12-11T01:59:43;26.15;;;15.78;;
22435;SDS011;11385;50.822;4.324;2022-12-11T02:02:20;28.05;;;15.00;;
22435;SDS011;11385;50.822;4.324;2022-12-11T02:04:50;27.77;;;15.88;;
22435;SDS011;11385;50.822;4.324;2022-12-11T02:07:16;29.92;;;16.15;;
22435;SDS011;11385;50.822;4.324;2022-12-11T02:09:43;26.82;;;15.55;;
22435;SDS011;11385;50.822;4.324;2022-12-11T02:18:01;27.82;;;15.70;;
22435;SDS011;11385;50.822;4.324;2022-12-11T02:20:35;28.65;;;16.45;;
22435;SDS011;11385;50.822;4.324;2022-12-11T02:28:37;28.50;;;16.45;;
22435;SDS011;11385;50.822;4.324;2022-12-11T02:31:12;28.38;;;16.23;;
22435;SDS011;11385;50.822;4.324;2022-12-11T02:33:58;28.92;;;16.02;;
22435;SDS011;11385;50.822;4.324;2022-12-11T02:36:31;29.05;;;15.80;;
22435;SDS011;11385;50.822;4.324;2022-12-11T02:38:59;22.77;;;12.73;;
22435;SDS011;11385;50.822;4.324;2022-12-11T02:41:28;26.15;;;16.40;;
22435;SDS011;11385;50.822;4.324;2022-12-11T02:43:56;26.95;;;15.53;;
22435;SDS011;11385;50.822;4.324;2022-12-11T02:46:24;25.97;;;15.68;;
22435;SDS011;11385;50.822;4.324;2022-12-11T02:48:52;28.92;;;16.62;;
22435;SDS011;11385;50.822;4.324;2022-12-11T02:51:21;29.77;;;16.52;;
22435;SDS011;11385;50.822;4.324;2022-12-11T02:53:51;25.75;;;14.58;;
22435;SDS011;11385;50.822;4.324;2022-12-11T02:56:23;30.52;;;16.40;;
22435;SDS011;11385;50.822;4.324;2022-12-11T02:58:54;28.80;;;16.37;;
22435;SDS011;11385;50.822;4.324;2022-12-11T03:01:24;28.65;;;16.75;;
22435;SDS011;11385;50.822;4.324;2022-12-11T03:03:52;29.02;;;16.20;;
22435;SDS011;11385;50.822;4.324;2022-12-11T03:06:20;30.55;;;16.57;;
22435;SDS011;11385;50.822;4.324;2022-12-11T03:08:49;25.17;;;15.88;;
22435;SDS011;11385;50.822;4.324;2022-12-11T03:11:16;30.55;;;17.75;;
22435;SDS011;11385;50.822;4.324;2022-12-11T03:13:43;34.85;;;17.17;;
22435;SDS011;11385;50.822;4.324;2022-12-11T03:16:14;28.27;;;17.73;;
22435;SDS011;11385;50.822;4.324;2022-12-11T03:18:46;34.33;;;19.20;;
22435;SDS011;11385;50.822;4.324;2022-12-11T03:21:28;27.57;;;17.13;;
22435;SDS011;11385;50.822;4.324;2022-12-11T03:24:07;31.75;;;17.67;;
22435;SDS011;11385;50.822;4.324;2022-12-11T03:26:37;31.10;;;18.20;;
22435;SDS011;11385;50.822;4.324;2022-12-11T03:29:13;32.98;;;18.73;;
22435;SDS011;11385;50.822;4.324;2022-12-11T03:31:45;30.60;;;17.65;;
22435;SDS011;11385;50.822;4.324;2022-12-11T03:34:21;33.33;;;18.35;;
22435;SDS011;11385;50.822;4.324;2022-12-11T03:36:50;33.92;;;18.10;;
22435;SDS011;11385;50.822;4.324;2022-12-11T03:39:20;31.85;;;18.92;;
22435;SDS011;11385;50.822;4.324;2022-12-11T03:41:48;29.60;;;14.80;;
22435;SDS011;11385;50.822;4.324;2022-12-11T03:44:17;35.85;;;18.92;;
22435;SDS011;11385;50.822;4.324;2022-12-11T03:46:45;30.85;;;18.30;;
22435;SDS011;11385;50.822;4.324;2022-12-11T03:49:16;34.40;;;18.30;;
22435;SDS011;11385;50.822;4.324;2022-12-11T03:51:47;34.45;;;19.40;;
22435;SDS011;11385;50.822;4.324;2022-12-11T03:54:17;40.00;;;19.32;;
22435;SDS011;11385;50.822;4.324;2022-12-11T03:56:44;36.25;;;18.35;;
22435;SDS011;11385;50.822;4.324;2022-12-11T03:59:13;36.38;;;19.10;;
22435;SDS011;11385;50.822;4.324;2022-12-11T04:01:40;36.25;;;18.98;;
22435;SDS011;11385;50.822;4.324;2022-12-11T04:04:06;33.15;;;18.98;;
22435;SDS011;11385;50.822;4.324;2022-12-11T04:06:34;37.08;;;18.50;;
22435;SDS011;11385;50.822;4.324;2022-12-11T04:09:00;30.97;;;18.40;;
22435;SDS011;11385;50.822;4.324;2022-12-11T04:11:27;34.90;;;18.50;;
22435;SDS011;11385;50.822;4.324;2022-12-11T04:14:03;41.50;;;20.43;;
22435;SDS011;11385;50.822;4.324;2022-12-11T04:16:37;34.43;;;18.25;;
22435;SDS011;11385;50.822;4.324;2022-12-11T04:19:04;39.83;;;18.90;;
22435;SDS011;11385;50.822;4.324;2022-12-11T04:21:37;41.68;;;20.15;;
22435;SDS011;11385;50.822;4.324;2022-12-11T04:24:09;36.63;;;18.98;;
22435;SDS011;11385;50.822;4.324;2022-12-11T04:26:40;41.28;;;21.40;;
22435;SDS011;11385;50.822;4.324;2022-12-11T04:29:11;36.42;;;19.70;;
22435;SDS011;11385;50.822;4.324;2022-12-11T04:31:38;37.33;;;19.73;;
22435;SDS011;11385;50.822;4.324;2022-12-11T04:34:05;41.63;;;20.43;;
22435;SDS011;11385;50.822;4.324;2022-12-11T04:36:31;38.85;;;19.98;;
22435;SDS011;11385;50.822;4.324;2022-12-11T04:38:58;37.73;;;21.07;;
22435;SDS011;11385;50.822;4.324;2022-12-11T04:41:25;34.60;;;19.02;;
22435;SDS011;11385;50.822;4.324;2022-12-11T04:43:51;37.20;;;21.90;;
22435;SDS011;11385;50.822;4.324;2022-12-11T04:46:19;37.85;;;19.12;;
22435;SDS011;11385;50.822;4.324;2022-12-11T04:48:47;38.88;;;20.62;;
22435;SDS011;11385;50.822;4.324;2022-12-11T04:51:15;38.02;;;19.65;;
22435;SDS011;11385;50.822;4.324;2022-12-11T04:53:42;40.83;;;21.33;;
22435;SDS011;11385;50.822;4.324;2022-12-11T04:56:09;34.38;;;19.60;;
22435;SDS011;11385;50.822;4.324;2022-12-11T04:58:37;39.55;;;20.72;;
22435;SDS011;11385;50.822;4.324;2022-12-11T05:01:07;39.33;;;19.90;;
22435;SDS011;11385;50.822;4.324;2022-12-11T05:03:35;34.98;;;20.00;;
22435;SDS011;11385;50.822;4.324;2022-12-11T05:06:02;37.95;;;19.73;;
22435;SDS011;11385;50.822;4.324;2022-12-11T05:08:29;38.78;;;19.98;;
22435;SDS011;11385;50.822;4.324;2022-12-11T05:10:57;37.08;;;18.80;;
22435;SDS011;11385;50.822;4.324;2022-12-11T05:13:25;40.08;;;20.45;;
22435;SDS011;11385;50.822;4.324;2022-12-11T05:15:53;35.60;;;19.25;;
22435;SDS011;11385;50.822;4.324;2022-12-11T05:18:21;37.08;;;18.92;;
22435;SDS011;11385;50.822;4.324;2022-12-11T05:20:54;36.10;;;19.98;;
22435;SDS011;11385;50.822;4.324;2022-12-11T05:23:22;37.13;;;20.60;;
22435;SDS011;11385;50.822;4.324;2022-12-11T05:25:54;38.10;;;19.48;;
22435;SDS011;11385;50.822;4.324;2022-12-11T05:28:22;40.43;;;18.95;;
22435;SDS011;11385;50.822;4.324;2022-12-11T05:36:22;38.30;;;20.45;;
22435;SDS011;11385;50.822;4.324;2022-12-11T05:38:57;37.25;;;19.48;;
22435;SDS011;11385;50.822;4.324;2022-12-11T05:41:28;38.90;;;19.73;;
22435;SDS011;11385;50.822;4.324;2022-12-11T05:43:57;36.73;;;20.57;;
22435;SDS011;11385;50.822;4.324;2022-12-11T05:46:24;40.25;;;19.75;;
22435;SDS011;11385;50.822;4.324;2022-12-11T05:48:54;39.03;;;19.23;;
22435;SDS011;11385;50.822;4.324;2022-12-11T05:51:22;35.68;;;20.40;;
22435;SDS011;11385;50.822;4.324;2022-12-11T05:53:50;34.55;;;19.20;;
22435;SDS011;11385;50.822;4.324;2022-12-11T05:56:18;35.78;;;19.15;;
22435;SDS011;11385;50.822;4.324;2022-12-11T05:58:47;37.08;;;20.43;;
22435;SDS011;11385;50.822;4.324;2022-12-11T06:01:17;38.02;;;19.70;;
22435;SDS011;11385;50.822;4.324;2022-12-11T06:03:46;34.65;;;19.30;;
22435;SDS011;11385;50.822;4.324;2022-12-11T06:06:13;35.98;;;20.48;;
22435;SDS011;11385;50.822;4.324;2022-12-11T06:08:40;37.05;;;20.27;;
22435;SDS011;11385;50.822;4.324;2022-12-11T06:11:08;37.48;;;19.62;;
22435;SDS011;11385;50.822;4.324;2022-12-11T06:13:36;36.85;;;19.82;;
22435;SDS011;11385;50.822;4.324;2022-12-11T06:16:03;37.63;;;21.00;;
22435;SDS011;11385;50.822;4.324;2022-12-11T06:18:35;39.25;;;20.27;;
22435;SDS011;11385;50.822;4.324;2022-12-11T06:23:39;36.98;;;19.62;;
22435;SDS011;11385;50.822;4.324;2022-12-11T06:26:07;35.43;;;19.52;;
22435;SDS011;11385;50.822;4.324;2022-12-11T06:28:34;34.33;;;19.20;;
22435;SDS011;11385;50.822;4.324;2022-12-11T06:31:01;37.85;;;20.10;;
22435;SDS011;11385;50.822;4.324;2022-12-11T06:33:28;41.10;;;21.23;;
22435;SDS011;11385;50.822;4.324;2022-12-11T06:35:55;36.60;;;19.95;;
22435;SDS011;11385;50.822;4.324;2022-12-11T06:38:24;40.10;;;20.65;;
22435;SDS011;11385;50.822;4.324;2022-12-11T06:40:54;38.10;;;20.85;;
22435;SDS011;11385;50.822;4.324;2022-12-11T06:43:21;40.35;;;20.35;;
22435;SDS011;11385;50.822;4.324;2022-12-11T06:45:48;39.55;;;20.10;;
22435;SDS011;11385;50.822;4.324;2022-12-11T06:48:15;41.45;;;20.12;;
22435;SDS011;11385;50.822;4.324;2022-12-11T06:50:42;39.40;;;20.60;;
22435;SDS011;11385;50.822;4.324;2022-12-11T06:53:10;43.68;;;20.52;;
22435;SDS011;11385;50.822;4.324;2022-12-11T06:55:38;40.35;;;20.35;;
22435;SDS011;11385;50.822;4.324;2022-12-11T06:58:04;36.42;;;19.20;;
22435;SDS011;11385;50.822;4.324;2022-12-11T07:00:31;37.90;;;19.30;;
22435;SDS011;11385;50.822;4.324;2022-12-11T07:03:00;34.48;;;18.23;;
22435;SDS011;11385;50.822;4.324;2022-12-11T07:05:27;37.85;;;19.95;;
22435;SDS011;11385;50.822;4.324;2022-12-11T07:07:55;37.83;;;19.45;;
22435;SDS011;11385;50.822;4.324;2022-12-11T07:10:22;35.78;;;18.95;;
22435;SDS011;11385;50.822;4.324;2022-12-11T07:12:51;41.60;;;19.70;;
22435;SDS011;11385;50.822;4.324;2022-12-11T07:15:19;39.03;;;19.73;;
22435;SDS011;11385;50.822;4.324;2022-12-11T07:17:45;36.28;;;18.55;;
22435;SDS011;11385;50.822;4.324;2022-12-11T07:20:12;37.17;;;18.67;;
22435;SDS011;11385;50.822;4.324;2022-12-11T07:22:39;35.00;;;19.20;;
22435;SDS011;11385;50.822;4.324;2022-12-11T07:25:09;39.33;;;19.60;;
22435;SDS011;11385;50.822;4.324;2022-12-11T07:27:35;36.83;;;19.32;;
22435;SDS011;11385;50.822;4.324;2022-12-11T07:30:02;37.95;;;18.90;;
22435;SDS011;11385;50.822;4.324;2022-12-11T07:32:31;41.48;;;19.92;;
22435;SDS011;11385;50.822;4.324;2022-12-11T07:34:57;39.40;;;19.45;;
22435;SDS011;11385;50.822;4.324;2022-12-11T07:37:25;40.73;;;20.30;;
22435;SDS011;11385;50.822;4.324;2022-12-11T07:39:52;37.90;;;18.98;;
22435;SDS011;11385;50.822;4.324;2022-12-11T07:42:20;36.68;;;19.27;;
22435;SDS011;11385;50.822;4.324;2022-12-11T07:44:46;37.60;;;19.25;;
22435;SDS011;11385;50.822;4.324;2022-12-11T07:47:13;34.40;;;17.87;;
22435;SDS011;11385;50.822;4.324;2022-12-11T07:49:40;40.17;;;18.50;;
22435;SDS011;11385;50.822;4.324;2022-12-11T07:52:06;37.53;;;18.75;;
22435;SDS011;11385;50.822;4.324;2022-12-11T07:54:33;32.65;;;18.32;;
22435;SDS011;11385;50.822;4.324;2022-12-11T07:57:00;40.58;;;20.08;;
22435;SDS011;11385;50.822;4.324;2022-12-11T07:59:27;39.67;;;19.67;;
22435;SDS011;11385;50.822;4.324;2022-12-11T08:01:54;42.13;;;20.35;;
22435;SDS011;11385;50.822;4.324;2022-12-11T08:04:20;35.85;;;18.80;;
22435;SDS011;11385;50.822;4.324;2022-12-11T08:06:47;42.43;;;20.00;;
22435;SDS011;11385;50.822;4.324;2022-12-11T08:09:13;40.85;;;19.60;;
22435;SDS011;11385;50.822;4.324;2022-12-11T08:11:40;39.65;;;20.15;;
22435;SDS011;11385;50.822;4.324;2022-12-11T08:14:06;38.55;;;19.40;;
22435;SDS011;11385;50.822;4.324;2022-12-11T08:16:34;39.23;;;18.67;;
22435;SDS011;11385;50.822;4.324;2022-12-11T08:19:01;40.20;;;19.57;;
22435;SDS011;11385;50.822;4.324;2022-12-11T08:21:27;33.60;;;19.07;;
22435;SDS011;11385;50.822;4.324;2022-12-11T08:23:54;35.65;;;18.87;;
22435;SDS011;11385;50.822;4.324;2022-12-11T08:26:23;35.58;;;18.73;;
22435;SDS011;11385;50.822;4.324;2022-12-11T08:28:51;32.50;;;17.53;;
22435;SDS011;11385;50.822;4.324;2022-12-11T08:31:18;33.88;;;17.75;;
22435;SDS011;11385;50.822;4.324;2022-12-11T08:33:45;34.03;;;18.45;;
22435;SDS011;11385;50.822;4.324;2022-12-11T08:36:14;38.98;;;19.50;;
22435;SDS011;11385;50.822;4.324;2022-12-11T08:38:42;37.38;;;19.37;;
22435;SDS011;11385;50.822;4.324;2022-12-11T08:41:11;33.73;;;18.10;;
22435;SDS011;11385;50.822;4.324;2022-12-11T08:43:41;35.52;;;18.17;;
22435;SDS011;11385;50.822;4.324;2022-12-11T08:46:08;31.07;;;18.52;;
22435;SDS011;11385;50.822;4.324;2022-12-11T08:48:37;35.92;;;18.55;;
22435;SDS011;11385;50.822;4.324;2022-12-11T08:51:05;32.67;;;18.48;;
22435;SDS011;11385;50.822;4.324;2022-12-11T08:53:33;31.20;;;16.65;;
22435;SDS011;11385;50.822;4.324;2022-12-11T08:56:01;35.23;;;19.45;;
22435;SDS011;11385;50.822;4.324;2022-12-11T08:58:29;49.83;;;29.40;;
22435;SDS011;11385;50.822;4.324;2022-12-11T09:00:56;49.05;;;27.98;;
22435;SDS011;11385;50.822;4.324;2022-12-11T09:03:24;34.67;;;18.35;;
22435;SDS011;11385;50.822;4.324;2022-12-11T09:05:50;32.30;;;16.17;;
22435;SDS011;11385;50.822;4.324;2022-12-11T09:08:17;31.20;;;17.37;;
22435;SDS011;11385;50.822;4.324;2022-12-11T09:10:44;31.25;;;17.42;;
22435;SDS011;11385;50.822;4.324;2022-12-11T09:13:10;30.88;;;15.95;;
22435;SDS011;11385;50.822;4.324;2022-12-11T09:15:39;30.27;;;15.43;;
22435;SDS011;11385;50.822;4.324;2022-12-11T09:18:06;29.52;;;16.10;;
22435;SDS011;11385;50.822;4.324;2022-12-11T09:20:33;34.05;;;16.60;;
22435;SDS011;11385;50.822;4.324;2022-12-11T09:23:00;34.63;;;17.95;;
22435;SDS011;11385;50.822;4.324;2022-12-11T09:25:27;31.27;;;17.65;;
22435;SDS011;11385;50.822;4.324;2022-12-11T09:27:54;31.20;;;16.27;;
22435;SDS011;11385;50.822;4.324;2022-12-11T09:30:20;33.13;;;16.42;;
22435;SDS011;11385;50.822;4.324;2022-12-11T09:32:47;32.60;;;17.60;;
22435;SDS011;11385;50.822;4.324;2022-12-11T09:35:14;31.40;;;16.37;;
22435;SDS011;11385;50.822;4.324;2022-12-11T09:37:40;33.48;;;17.00;;
22435;SDS011;11385;50.822;4.324;2022-12-11T09:40:08;30.27;;;16.95;;
22435;SDS011;11385;50.822;4.324;2022-12-11T09:42:44;31.57;;;16.75;;
22435;SDS011;11385;50.822;4.324;2022-12-11T09:45:12;35.68;;;17.10;;
22435;SDS011;11385;50.822;4.324;2022-12-11T09:47:41;33.83;;;17.37;;
22435;SDS011;11385;50.822;4.324;2022-12-11T09:50:12;23.67;;;13.43;;
22435;SDS011;11385;50.822;4.324;2022-12-11T09:52:52;31.57;;;16.00;;
22435;SDS011;11385;50.822;4.324;2022-12-11T09:55:23;44.25;;;24.00;;
22435;SDS011;11385;50.822;4.324;2022-12-11T10:00:46;32.60;;;17.82;;
22435;SDS011;11385;50.822;4.324;2022-12-11T10:06:06;35.95;;;16.17;;
22435;SDS011;11385;50.822;4.324;2022-12-11T10:08:43;31.73;;;16.77;;
22435;SDS011;11385;50.822;4.324;2022-12-11T10:11:25;32.98;;;17.70;;
22435;SDS011;11385;50.822;4.324;2022-12-11T10:16:35;35.38;;;16.82;;
22435;SDS011;11385;50.822;4.324;2022-12-11T10:21:36;33.08;;;16.30;;
22435;SDS011;11385;50.822;4.324;2022-12-11T10:24:10;32.65;;;16.97;;
22435;SDS011;11385;50.822;4.324;2022-12-11T10:26:38;34.65;;;17.48;;
22435;SDS011;11385;50.822;4.324;2022-12-11T10:29:05;34.38;;;17.52;;
22435;SDS011;11385;50.822;4.324;2022-12-11T10:31:40;34.63;;;17.95;;
22435;SDS011;11385;50.822;4.324;2022-12-11T10:34:11;35.78;;;18.20;;
22435;SDS011;11385;50.822;4.324;2022-12-11T10:36:40;36.83;;;18.05;;
22435;SDS011;11385;50.822;4.324;2022-12-11T10:39:17;32.50;;;16.45;;
22435;SDS011;11385;50.822;4.324;2022-12-11T10:41:46;35.28;;;17.52;;
22435;SDS011;11385;50.822;4.324;2022-12-11T10:44:30;32.70;;;17.70;;
22435;SDS011;11385;50.822;4.324;2022-12-11T10:47:00;35.73;;;17.10;;
22435;SDS011;11385;50.822;4.324;2022-12-11T10:49:30;35.43;;;17.60;;
22435;SDS011;11385;50.822;4.324;2022-12-11T10:51:59;35.90;;;16.35;;
22435;SDS011;11385;50.822;4.324;2022-12-11T10:54:29;33.45;;;15.72;;
22435;SDS011;11385;50.822;4.324;2022-12-11T10:56:59;33.02;;;16.45;;
22435;SDS011;11385;50.822;4.324;2022-12-11T10:59:30;33.95;;;15.05;;
22435;SDS011;11385;50.822;4.324;2022-12-11T11:02:01;28.85;;;14.38;;
22435;SDS011;11385;50.822;4.324;2022-12-11T11:04:32;34.13;;;16.05;;
22435;SDS011;11385;50.822;4.324;2022-12-11T11:07:03;30.23;;;13.72;;
22435;SDS011;11385;50.822;4.324;2022-12-11T11:09:38;34.30;;;15.18;;
22435;SDS011;11385;50.822;4.324;2022-12-11T11:14:46;29.12;;;14.35;;
22435;SDS011;11385;50.822;4.324;2022-12-11T11:17:14;29.50;;;14.65;;
22435;SDS011;11385;50.822;4.324;2022-12-11T11:19:45;31.12;;;15.55;;
22435;SDS011;11385;50.822;4.324;2022-12-11T11:22:14;21.60;;;10.53;;
22435;SDS011;11385;50.822;4.324;2022-12-11T11:24:43;31.25;;;15.23;;
22435;SDS011;11385;50.822;4.324;2022-12-11T11:27:17;31.65;;;14.65;;
22435;SDS011;11385;50.822;4.324;2022-12-11T11:29:53;27.75;;;13.43;;
22435;SDS011;11385;50.822;4.324;2022-12-11T11:32:24;32.28;;;15.80;;
22435;SDS011;11385;50.822;4.324;2022-12-11T11:35:05;32.08;;;13.43;;
22435;SDS011;11385;50.822;4.324;2022-12-11T11:37:46;28.00;;;13.88;;
22435;SDS011;11385;50.822;4.324;2022-12-11T11:40:26;40.40;;;20.95;;
22435;SDS011;11385;50.822;4.324;2022-12-11T11:43:33;33.78;;;16.23;;
22435;SDS011;11385;50.822;4.324;2022-12-11T11:45:52;32.08;;;13.98;;
22435;SDS011;11385;50.822;4.324;2022-12-11T11:48:35;26.75;;;13.70;;
22435;SDS011;11385;50.822;4.324;2022-12-11T11:51:26;25.77;;;13.25;;
22435;SDS011;11385;50.822;4.324;2022-12-11T11:53:55;26.33;;;12.70;;
22435;SDS011;11385;50.822;4.324;2022-12-11T11:56:25;28.23;;;13.10;;
22435;SDS011;11385;50.822;4.324;2022-12-11T11:58:58;24.27;;;13.18;;
22435;SDS011;11385;50.822;4.324;2022-12-11T12:01:44;27.20;;;13.20;;
22435;SDS011;11385;50.822;4.324;2022-12-11T12:04:11;28.62;;;12.70;;
22435;SDS011;11385;50.822;4.324;2022-12-11T12:06:56;25.48;;;11.33;;
22435;SDS011;11385;50.822;4.324;2022-12-11T12:09:33;23.20;;;11.00;;
22435;SDS011;11385;50.822;4.324;2022-12-11T12:12:07;23.45;;;11.12;;
22435;SDS011;11385;50.822;4.324;2022-12-11T12:17:21;22.22;;;10.50;;
22435;SDS011;11385;50.822;4.324;2022-12-11T12:19:50;27.60;;;11.18;;
22435;SDS011;11385;50.822;4.324;2022-12-11T12:22:42;26.12;;;11.57;;
22435;SDS011;11385;50.822;4.324;2022-12-11T12:25:17;22.35;;;10.43;;
22435;SDS011;11385;50.822;4.324;2022-12-11T12:27:52;40.75;;;20.48;;
22435;SDS011;11385;50.822;4.324;2022-12-11T12:30:22;57.55;;;32.70;;
22435;SDS011;11385;50.822;4.324;2022-12-11T12:33:05;29.87;;;13.10;;
22435;SDS011;11385;50.822;4.324;2022-12-11T12:35:36;26.75;;;13.20;;
22435;SDS011;11385;50.822;4.324;2022-12-11T12:38:06;26.33;;;13.10;;
22435;SDS011;11385;50.822;4.324;2022-12-11T12:40:44;25.60;;;13.05;;
22435;SDS011;11385;50.822;4.324;2022-12-11T12:47:02;31.30;;;13.93;;
22435;SDS011;11385;50.822;4.324;2022-12-11T12:48:57;29.37;;;13.25;;
22435;SDS011;11385;50.822;4.324;2022-12-11T12:51:25;40.15;;;19.98;;
22435;SDS011;11385;50.822;4.324;2022-12-11T12:53:55;42.15;;;22.07;;
22435;SDS011;11385;50.822;4.324;2022-12-11T12:58:52;31.15;;;13.98;;
22435;SDS011;11385;50.822;4.324;2022-12-11T13:01:20;32.65;;;14.45;;
22435;SDS011;11385;50.822;4.324;2022-12-11T13:03:50;28.92;;;14.05;;
22435;SDS011;11385;50.822;4.324;2022-12-11T13:06:28;28.32;;;13.85;;
22435;SDS011;11385;50.822;4.324;2022-12-11T13:09:09;32.58;;;14.28;;
22435;SDS011;11385;50.822;4.324;2022-12-11T13:11:33;31.85;;;15.45;;
22435;SDS011;11385;50.822;4.324;2022-12-11T13:14:03;61.05;;;30.77;;
22435;SDS011;11385;50.822;4.324;2022-12-11T13:16:34;34.50;;;16.10;;
22435;SDS011;11385;50.822;4.324;2022-12-11T13:19:35;29.70;;;14.40;;
22435;SDS011;11385;50.822;4.324;2022-12-11T13:22:01;35.83;;;16.07;;
22435;SDS011;11385;50.822;4.324;2022-12-11T13:24:31;30.92;;;15.10;;
22435;SDS011;11385;50.822;4.324;2022-12-11T13:29:37;30.65;;;15.08;;
22435;SDS011;11385;50.822;4.324;2022-12-11T13:32:22;39.07;;;17.07;;
22435;SDS011;11385;50.822;4.324;2022-12-11T13:34:54;32.65;;;15.75;;
22435;SDS011;11385;50.822;4.324;2022-12-11T13:45:37;40.45;;;19.57;;
22435;SDS011;11385;50.822;4.324;2022-12-11T13:48:26;43.92;;;21.20;;
22435;SDS011;11385;50.822;4.324;2022-12-11T13:50:56;51.15;;;23.47;;
22435;SDS011;11385;50.822;4.324;2022-12-11T13:53:24;40.80;;;19.35;;
22435;SDS011;11385;50.822;4.324;2022-12-11T13:55:56;38.92;;;18.12;;
22435;SDS011;11385;50.822;4.324;2022-12-11T13:58:24;37.75;;;17.98;;
22435;SDS011;11385;50.822;4.324;2022-12-11T14:01:25;37.70;;;17.62;;
22435;SDS011;11385;50.822;4.324;2022-12-11T14:03:39;33.80;;;18.05;;
22435;SDS011;11385;50.822;4.324;2022-12-11T14:06:09;42.35;;;19.82;;
22435;SDS011;11385;50.822;4.324;2022-12-11T14:08:38;40.33;;;19.23;;
22435;SDS011;11385;50.822;4.324;2022-12-11T14:11:07;39.67;;;19.30;;
22435;SDS011;11385;50.822;4.324;2022-12-11T14:13:34;40.33;;;19.92;;
22435;SDS011;11385;50.822;4.324;2022-12-11T14:16:05;40.20;;;20.00;;
22435;SDS011;11385;50.822;4.324;2022-12-11T14:18:33;38.02;;;18.37;;
22435;SDS011;11385;50.822;4.324;2022-12-11T14:21:03;38.78;;;18.50;;
22435;SDS011;11385;50.822;4.324;2022-12-11T14:23:32;41.92;;;19.87;;
22435;SDS011;11385;50.822;4.324;2022-12-11T14:26:01;38.75;;;19.30;;
22435;SDS011;11385;50.822;4.324;2022-12-11T14:28:35;36.33;;;18.70;;
22435;SDS011;11385;50.822;4.324;2022-12-11T14:31:02;40.23;;;17.70;;
22435;SDS011;11385;50.822;4.324;2022-12-11T14:33:35;40.03;;;18.32;;
22435;SDS011;11385;50.822;4.324;2022-12-11T14:36:05;36.77;;;17.67;;
22435;SDS011;11385;50.822;4.324;2022-12-11T14:38:35;35.33;;;17.50;;
22435;SDS011;11385;50.822;4.324;2022-12-11T14:41:07;41.55;;;18.00;;
22435;SDS011;11385;50.822;4.324;2022-12-11T14:43:42;38.85;;;17.45;;
22435;SDS011;11385;50.822;4.324;2022-12-11T14:46:15;48.08;;;25.68;;
22435;SDS011;11385;50.822;4.324;2022-12-11T14:49:01;44.33;;;24.25;;
22435;SDS011;11385;50.822;4.324;2022-12-11T14:51:34;35.40;;;18.42;;
22435;SDS011;11385;50.822;4.324;2022-12-11T14:54:01;43.75;;;22.37;;
22435;SDS011;11385;50.822;4.324;2022-12-11T14:56:29;33.60;;;18.10;;
22435;SDS011;11385;50.822;4.324;2022-12-11T14:59:02;35.40;;;17.73;;
22435;SDS011;11385;50.822;4.324;2022-12-11T15:01:32;37.00;;;17.57;;
22435;SDS011;11385;50.822;4.324;2022-12-11T15:04:03;29.85;;;16.30;;
22435;SDS011;11385;50.822;4.324;2022-12-11T15:06:33;32.15;;;16.42;;
22435;SDS011;11385;50.822;4.324;2022-12-11T15:09:14;34.45;;;15.68;;
22435;SDS011;11385;50.822;4.324;2022-12-11T15:11:43;28.53;;;14.90;;
22435;SDS011;11385;50.822;4.324;2022-12-11T15:14:11;28.23;;;16.15;;
22435;SDS011;11385;50.822;4.324;2022-12-11T15:16:40;28.77;;;15.72;;
22435;SDS011;11385;50.822;4.324;2022-12-11T15:19:14;32.05;;;16.30;;
22435;SDS011;11385;50.822;4.324;2022-12-11T15:21:47;25.02;;;13.88;;
22435;SDS011;11385;50.822;4.324;2022-12-11T15:24:27;27.70;;;15.20;;
22435;SDS011;11385;50.822;4.324;2022-12-11T15:26:58;22.90;;;12.98;;
22435;SDS011;11385;50.822;4.324;2022-12-11T15:29:31;24.43;;;13.90;;
22435;SDS011;11385;50.822;4.324;2022-12-11T15:32:11;25.08;;;13.30;;